首爾, 大韓民國

2014年7月31日 14時20分 (GMT +0900)
IGYEONGG3 海拔 115 ft | 37.53 °N, 126.83 °E | Change Station

Current weather conditions updated 42 seconds ago

Mostly Cloudy
多雲
93.5 °F
感覺像 115 °F
3.0
風 變化 風 來自 西北偏北
Gusts 5.0 英里每小時

今天比昨天 涼爽。 零星雷雨。。

今日
高 -- | 低 -- °F
--% 降水機率
昨天
高 -- | 低 -- °F
Precip. -- 英寸
5:35 AM 7:41 PM
眉月, 16% visible
氣壓 29.80 英寸
能見度 6.2 英里
多雲 多雲 3500 ft
高溫指數 115 °F
露點 81 °F
濕度 68%
降雨量 0.06 英寸
積雪深度 不適用。
紫外線 4.7 / 12
花粉 不適用。
空氣質素 不適用。
Flu Activity 不適用。
METAR RKSS 310500Z 32003KT 9999 BKN035 32/22 Q1009 NOSIG

More Conditions Fewer Conditions

氣壓 29.80 英寸
能見度 6.2 英里
多雲 多雲 3500 ft
高溫指數 115 °F
露點 81 °F
濕度 68%
降雨量 0.06 英寸
積雪深度 不適用。
紫外線 4.7 / 12
花粉 不適用。
空氣質素 不適用。
Flu Activity 不適用。
METAR RKSS 310500Z 32003KT 9999 BKN035 32/22 Q1009 NOSIG

More Conditions Fewer Conditions

10-Day Weather Forecast

Almanac

天文

Jul. 31, 2014 昇起 降落
實際時間 05:35 KST 19:41 KST
民用曙暮光 05:05 KST 20:10 KST
航海曙暮光 04:30 KST 20:46 KST
天文學微明 03:51 KST 21:24 KST
月亮 09:23 KST 21:42 KST
可見光的長度 15h 04m
白晝時間
14h 06m
Tomorrow will be 1m 47s shorter.
眉月, 16% of the Moon is Illuminated
今日
眉月
8月 3
第一季
8月 10
滿月
8月 17
第四季
8月 25

昨天之最

國家高溫 國家低溫

Community

WunderPhotos

Upload Photos

1,739,248 照片已上傳!

Nearby

積雪量

Not available.

地震活動

城市 距離 時間和日期
附近沒有最近發生的地震活動。
顯示的最小幅度是2.5。

沿海水溫

地點 溫度
無任何天氣監測站報告

附近的氣象站

氣象站位置 溫度 高溫指數 露點 濕度 Precip. 海拔 最近更新時間 類型
Bucheon3 93.5 °F 115 °F 81 °F 68% 西北偏北  風  3.0 英里每小時 0.00 英寸 / hr 115 ft 2:19 PM KST 正常
Yongin-Si 92.2 °F 115 °F 82 °F 72% 西南偏南  風  1.0 英里每小時 0.00 英寸 / hr 312 ft 2:17 PM KST 正常

Show More Stations Show Fewer Stations